createdAt,value
2018-09-08T00:01:14.334Z,100992.68
2018-09-08T00:04:18.607Z,100989.21
2018-09-08T00:07:28.125Z,100980.20
2018-09-08T00:10:32.409Z,100980.64
2018-09-08T00:13:36.665Z,100983.20
2018-09-08T00:16:46.267Z,100976.30
2018-09-08T00:19:55.859Z,100975.01
2018-09-08T00:23:05.511Z,100987.67
2018-09-08T00:26:15.119Z,100980.35
2018-09-08T00:29:24.577Z,100973.03
2018-09-08T00:32:28.837Z,100972.60
2018-09-08T00:35:33.176Z,100960.42
2018-09-08T00:38:37.417Z,100965.67
2018-09-08T00:41:41.719Z,100954.49
2018-09-08T00:44:46.207Z,100951.45
2018-09-08T00:47:50.556Z,100952.33
2018-09-08T00:50:54.857Z,100948.47
2018-09-08T00:53:59.628Z,100951.07
2018-09-08T00:57:03.898Z,100958.45
2018-09-08T01:00:08.194Z,100959.75
2018-09-08T01:03:12.714Z,100961.86
2018-09-08T01:06:16.989Z,100965.23
2018-09-08T01:09:21.321Z,100957.30
2018-09-08T01:12:25.591Z,100946.93
2018-09-08T01:15:29.940Z,100961.19
2018-09-08T01:18:36.778Z,100956.47
2018-09-08T01:21:41.027Z,100958.83
2018-09-08T01:24:45.432Z,100957.86
2018-09-08T01:27:49.750Z,100954.78
2018-09-08T01:30:53.998Z,100949.42
2018-09-08T01:33:58.310Z,100946.44
2018-09-08T01:37:02.603Z,100939.94
2018-09-08T01:40:08.550Z,100936.81
2018-09-08T01:43:13.056Z,100940.12
2018-09-08T01:46:17.357Z,100936.55
2018-09-08T01:49:21.654Z,100931.58
2018-09-08T01:52:25.964Z,100935.59
2018-09-08T01:55:30.212Z,100940.30
2018-09-08T01:58:34.478Z,100945.02
2018-09-08T02:01:38.852Z,100943.77
2018-09-08T02:04:43.153Z,100948.20
2018-09-08T02:07:47.451Z,100936.95
2018-09-08T02:10:51.852Z,100940.52
2018-09-08T02:13:56.317Z,100939.16
2018-09-08T02:17:00.605Z,100934.34
2018-09-08T02:20:04.983Z,100945.93
2018-09-08T02:23:09.274Z,100947.62
2018-09-08T02:26:13.504Z,100937.61
2018-09-08T02:29:17.769Z,100942.79
2018-09-08T02:32:22.061Z,100944.05
2018-09-08T02:35:26.611Z,100932.34
2018-09-08T02:38:30.994Z,100922.81
2018-09-08T02:41:35.276Z,100922.76
2018-09-08T02:44:39.511Z,100929.27
2018-09-08T02:47:43.817Z,100930.08
2018-09-08T02:50:46.565Z,100920.07
2018-09-08T02:53:49.341Z,100920.28
2018-09-08T02:56:52.091Z,100919.30
2018-09-08T02:59:54.816Z,100927.04
2018-09-08T03:02:57.564Z,100930.40
2018-09-08T03:06:00.303Z,100948.14
2018-09-08T03:09:03.059Z,100958.11
2018-09-08T03:12:05.820Z,100965.84
2018-09-08T03:15:08.573Z,100965.39
2018-09-08T03:18:11.319Z,100963.67
2018-09-08T03:21:14.069Z,100958.33
2018-09-08T03:24:16.803Z,100951.83
2018-09-08T03:27:19.565Z,100954.38
2018-09-08T03:30:22.302Z,100956.97
2018-09-08T03:33:25.034Z,100959.19
2018-09-08T03:36:27.833Z,100947.02
2018-09-08T03:39:30.591Z,100950.03
2018-09-08T03:42:33.352Z,100946.95
2018-09-08T03:45:36.140Z,100931.70
2018-09-08T03:48:38.856Z,100931.64
2018-09-08T03:51:41.601Z,100928.06
2018-09-08T03:54:44.406Z,100928.44
2018-09-08T03:57:47.144Z,100938.49
2018-09-08T04:00:49.889Z,100947.09
2018-09-08T04:03:54.195Z,100951.36
2018-09-08T04:06:58.540Z,100955.56
2018-09-08T04:10:02.776Z,100950.38
2018-09-08T04:13:07.284Z,100959.84
2018-09-08T04:16:11.588Z,100954.64
2018-09-08T04:19:15.913Z,100949.45
2018-09-08T04:22:24.482Z,100945.63
2018-09-08T04:25:28.679Z,100946.97
2018-09-08T04:28:33.641Z,100954.40
2018-09-08T04:31:38.028Z,100953.53
2018-09-08T04:34:42.384Z,100948.28
2018-09-08T04:37:46.735Z,100938.45
2018-09-08T04:40:51.279Z,100941.42
2018-09-08T04:43:55.567Z,100945.79
2018-09-08T04:46:59.910Z,100938.45
2018-09-08T04:50:04.235Z,100942.94
2018-09-08T04:53:08.580Z,100941.34
2018-09-08T04:56:12.955Z,100938.43
2018-09-08T04:59:17.285Z,100943.43
2018-09-08T05:02:21.640Z,100950.00
2018-09-08T05:05:25.895Z,100952.69
2018-09-08T05:08:30.185Z,100952.81
2018-09-08T05:11:34.443Z,100949.94
2018-09-08T05:14:38.701Z,100944.42
2018-09-08T05:17:42.922Z,100942.36
2018-09-08T05:20:47.206Z,100946.80
2018-09-08T05:23:51.557Z,100950.80
2018-09-08T05:26:55.901Z,100949.61
2018-09-08T05:30:00.265Z,100947.75
2018-09-08T05:33:04.622Z,100959.79
2018-09-08T05:36:08.903Z,100959.11
2018-09-08T05:39:13.248Z,100951.02
2018-09-08T05:42:17.540Z,100951.13
2018-09-08T05:45:21.852Z,100948.17
2018-09-08T05:48:26.138Z,100949.56
2018-09-08T05:51:30.461Z,100954.47
2018-09-08T05:54:34.877Z,100951.17
2018-09-08T05:57:39.249Z,100958.23
2018-09-08T06:00:43.567Z,100956.79
2018-09-08T06:03:47.870Z,100962.12
2018-09-08T06:06:56.277Z,100960.11
2018-09-08T06:10:00.626Z,100964.09
2018-09-08T06:13:04.913Z,100973.80
2018-09-08T06:16:09.269Z,100969.53
2018-09-08T06:19:13.581Z,100961.39
2018-09-08T06:22:17.894Z,100961.90
2018-09-08T06:25:22.233Z,100963.27
2018-09-08T06:28:26.549Z,100961.97
2018-09-08T06:31:30.862Z,100961.14
2018-09-08T06:34:35.170Z,100971.59
2018-09-08T06:37:39.422Z,100967.83
2018-09-08T06:40:43.701Z,100970.06
2018-09-08T06:43:47.978Z,100960.91
2018-09-08T06:46:52.341Z,100971.06
2018-09-08T06:49:56.743Z,100959.86
2018-09-08T06:53:01.077Z,100968.25
2018-09-08T06:56:05.414Z,100969.70
2018-09-08T06:59:09.728Z,100971.88
2018-09-08T07:02:14.061Z,100983.32
2018-09-08T07:05:18.390Z,100983.44
2018-09-08T07:08:22.722Z,100983.91
2018-09-08T07:11:26.997Z,100980.42
2018-09-08T07:14:31.328Z,100985.72
2018-09-08T07:17:35.639Z,100985.28
2018-09-08T07:20:39.916Z,100979.73
2018-09-08T07:23:44.281Z,100986.16
2018-09-08T07:26:48.578Z,100989.26
2018-09-08T07:29:52.926Z,100993.22
2018-09-08T07:32:57.238Z,100983.22
2018-09-08T07:36:01.559Z,100982.80
2018-09-08T07:39:08.793Z,100996.32
2018-09-08T07:42:13.103Z,100989.41
2018-09-08T07:45:17.512Z,100997.27
2018-09-08T07:48:21.823Z,100999.93
2018-09-08T07:51:26.249Z,101009.67
2018-09-08T07:54:30.511Z,101013.22
2018-09-08T07:57:34.871Z,101026.82
2018-09-08T08:00:39.185Z,101034.27
2018-09-08T08:03:43.503Z,101040.83
2018-09-08T08:06:47.864Z,101040.05
2018-09-08T08:09:52.154Z,101037.47
2018-09-08T08:12:56.477Z,101038.39
2018-09-08T08:16:00.799Z,101046.30
2018-09-08T08:19:05.218Z,101052.41
2018-09-08T08:22:09.525Z,101055.11
2018-09-08T08:25:13.874Z,101053.87
2018-09-08T08:28:18.159Z,101058.27
2018-09-08T08:31:22.486Z,101053.51
2018-09-08T08:34:26.825Z,101057.95
2018-09-08T08:37:31.141Z,101061.56
2018-09-08T08:40:35.468Z,101058.56
2018-09-08T08:43:39.726Z,101065.59
2018-09-08T08:46:44.240Z,101070.84
2018-09-08T08:50:04.495Z,101063.43
2018-09-08T08:54:20.822Z,101067.36
2018-09-08T08:57:25.208Z,101077.50
2018-09-08T09:00:29.548Z,101069.67
2018-09-08T09:03:33.860Z,101074.50
2018-09-08T09:06:38.281Z,101065.70
2018-09-08T09:09:44.065Z,101073.55
2018-09-08T09:12:48.450Z,101076.92
2018-09-08T09:15:52.753Z,101073.38
2018-09-08T09:19:28.707Z,101080.87
2018-09-08T09:22:50.125Z,101080.05
2018-09-08T09:25:54.400Z,101074.87
2018-09-08T09:28:58.765Z,101092.84
2018-09-08T09:32:03.084Z,101089.80
2018-09-08T09:35:09.680Z,101103.34
2018-09-08T09:38:13.990Z,101114.70
2018-09-08T09:41:18.288Z,101133.45
2018-09-08T09:44:22.666Z,101135.04
2018-09-08T09:47:26.930Z,101141.45
2018-09-08T09:50:31.289Z,101150.48
2018-09-08T09:53:35.590Z,101146.98
2018-09-08T09:56:39.878Z,101157.47
2018-09-08T09:59:44.181Z,101162.19
2018-09-08T10:03:21.364Z,101156.03
2018-09-08T10:06:25.819Z,101156.44
2018-09-08T10:09:30.076Z,101160.83
2018-09-08T10:12:34.316Z,101158.70
2018-09-08T10:15:38.556Z,101159.57
2018-09-08T10:18:42.823Z,101160.45
2018-09-08T10:21:47.082Z,101162.27
2018-09-08T10:24:51.373Z,101164.44
2018-09-08T10:27:55.682Z,101164.12
2018-09-08T10:30:59.986Z,101169.48
2018-09-08T10:34:04.430Z,101170.42
2018-09-08T10:37:08.712Z,101176.97
2018-09-08T10:40:13.866Z,101172.27
2018-09-08T10:43:18.138Z,101178.46
2018-09-08T10:46:22.497Z,101177.62
2018-09-08T10:49:26.785Z,101181.55
2018-09-08T10:52:34.286Z,101179.80
2018-09-08T10:55:38.554Z,101176.34
2018-09-08T10:58:42.813Z,101179.84
2018-09-08T11:01:47.186Z,101182.03
2018-09-08T11:04:51.515Z,101178.53
2018-09-08T11:07:55.820Z,101192.94
2018-09-08T11:11:00.255Z,101181.58
2018-09-08T11:14:04.566Z,101179.81
2018-09-08T11:17:08.867Z,101175.41
2018-09-08T11:20:13.176Z,101186.30
2018-09-08T11:23:17.542Z,101185.28
2018-09-08T11:26:21.985Z,101200.43
2018-09-08T11:29:26.316Z,101188.38
2018-09-08T11:32:30.693Z,101200.94
2018-09-08T11:35:34.989Z,101202.70
2018-09-08T11:38:39.349Z,101207.45
2018-09-08T11:41:44.091Z,101213.66
2018-09-08T11:44:48.523Z,101218.56
2018-09-08T11:47:52.822Z,101223.84
2018-09-08T11:50:57.121Z,101222.74
2018-09-08T11:54:01.419Z,101233.94
2018-09-08T11:57:05.764Z,101231.80
2018-09-08T12:00:10.083Z,101232.26
2018-09-08T12:03:14.408Z,101242.28
2018-09-08T12:06:18.709Z,101238.81
2018-09-08T12:09:23.021Z,101237.52
2018-09-08T12:12:27.344Z,101239.69
2018-09-08T12:15:31.668Z,101243.61
2018-09-08T12:18:35.906Z,101242.28
2018-09-08T12:21:40.316Z,101250.59
2018-09-08T12:24:44.603Z,101255.85
2018-09-08T12:27:48.976Z,101255.82
2018-09-08T12:30:53.427Z,101258.05
2018-09-08T12:33:57.842Z,101255.70
2018-09-08T12:37:02.218Z,101258.81
2018-09-08T12:40:06.764Z,101264.59
2018-09-08T12:43:11.096Z,101264.61
2018-09-08T12:46:15.478Z,101274.28
2018-09-08T12:49:19.797Z,101284.79
2018-09-08T12:52:24.114Z,101293.97
2018-09-08T12:55:28.441Z,101293.57
2018-09-08T12:58:32.767Z,101290.55
2018-09-08T13:01:37.057Z,101285.70
2018-09-08T13:04:41.410Z,101289.20
2018-09-08T13:07:46.066Z,101290.47
2018-09-08T13:10:50.874Z,101293.55
2018-09-08T13:13:55.246Z,101293.97
2018-09-08T13:16:59.591Z,101288.72
2018-09-08T13:20:03.856Z,101291.34
2018-09-08T13:23:08.253Z,101291.33
2018-09-08T13:26:12.522Z,101290.45
2018-09-08T13:29:16.831Z,101291.75
2018-09-08T13:32:21.095Z,101292.62
2018-09-08T13:35:25.384Z,101311.48
2018-09-08T13:38:29.697Z,101293.08
2018-09-08T13:41:34.013Z,101299.56
2018-09-08T13:44:38.434Z,101300.51
2018-09-08T13:47:42.721Z,101322.44
2018-09-08T13:50:47.075Z,101329.92
2018-09-08T13:53:51.387Z,101325.55
2018-09-08T13:56:55.714Z,101326.83
2018-09-08T14:00:00.060Z,101325.04
2018-09-08T14:03:04.378Z,101329.91
2018-09-08T14:06:08.716Z,101324.23
2018-09-08T14:09:13.008Z,101323.80
2018-09-08T14:12:17.373Z,101315.02
2018-09-08T14:15:21.744Z,101319.78
2018-09-08T14:18:26.059Z,101318.52
2018-09-08T14:21:30.361Z,101326.83
2018-09-08T14:24:34.684Z,101322.45
2018-09-08T14:27:39.101Z,101332.08
2018-09-08T14:30:43.465Z,101330.79
2018-09-08T14:33:47.878Z,101333.41
2018-09-08T14:36:52.199Z,101346.57
2018-09-08T14:39:56.584Z,101353.55
2018-09-08T14:43:01.265Z,101354.70
2018-09-08T14:46:05.596Z,101357.70
2018-09-08T14:49:09.973Z,101360.73
2018-09-08T14:52:15.022Z,101362.49
2018-09-08T14:55:19.354Z,101365.56
2018-09-08T14:58:23.770Z,101368.55
2018-09-08T15:01:28.306Z,101370.75
2018-09-08T15:04:32.610Z,101372.48
2018-09-08T15:07:36.937Z,101372.48
2018-09-08T15:10:41.210Z,101374.20
2018-09-08T15:13:45.541Z,101373.76
2018-09-08T15:16:49.896Z,101372.61
2018-09-08T15:19:54.433Z,101378.39
2018-09-08T15:22:58.841Z,101378.36
2018-09-08T15:26:03.263Z,101381.43
2018-09-08T15:29:07.572Z,101377.05
2018-09-08T15:32:12.009Z,101387.55
2018-09-08T15:35:17.082Z,101377.53
2018-09-08T15:38:21.492Z,101382.77
2018-09-08T15:41:25.855Z,101381.10
2018-09-08T15:44:30.294Z,101378.05
2018-09-08T15:47:34.649Z,101380.69
2018-09-08T15:50:39.043Z,101386.37
2018-09-08T15:53:43.424Z,101392.91
2018-09-08T15:56:47.789Z,101393.81
2018-09-08T15:59:52.219Z,101391.23
2018-09-08T16:02:56.613Z,101392.54
2018-09-08T16:06:01.083Z,101398.23
2018-09-08T16:09:06.765Z,101400.86
2018-09-08T16:12:11.095Z,101397.78
2018-09-08T16:15:15.557Z,101392.95
2018-09-08T16:18:19.913Z,101401.62
2018-09-08T16:21:24.321Z,101406.78
2018-09-08T16:24:28.718Z,101401.95
2018-09-08T16:27:33.159Z,101409.81
2018-09-08T16:30:37.452Z,101403.25
2018-09-08T16:33:41.782Z,101407.60
2018-09-08T16:36:46.072Z,101402.28
2018-09-08T16:39:50.446Z,101409.19
2018-09-08T16:42:54.791Z,101403.48
2018-09-08T16:45:59.100Z,101410.89
2018-09-08T16:49:03.586Z,101412.62
2018-09-08T16:52:07.979Z,101411.34
2018-09-08T16:55:12.248Z,101417.92
2018-09-08T16:58:16.737Z,101414.91
2018-09-08T17:01:21.142Z,101417.16
2018-09-08T17:04:25.464Z,101418.02
2018-09-08T17:07:30.091Z,101415.80
2018-09-08T17:10:34.425Z,101418.36
2018-09-08T17:13:38.676Z,101419.17
2018-09-08T17:16:42.996Z,101415.19
2018-09-08T17:19:47.353Z,101427.38
2018-09-08T17:22:51.729Z,101418.58
2018-09-08T17:25:55.996Z,101427.25
2018-09-08T17:29:00.457Z,101421.05
2018-09-08T17:32:04.835Z,101427.97
2018-09-08T17:35:09.164Z,101423.56
2018-09-08T17:38:13.581Z,101416.59
2018-09-08T17:41:17.932Z,101424.89
2018-09-08T17:44:22.286Z,101427.48
2018-09-08T17:47:26.680Z,101421.84
2018-09-08T17:50:31.053Z,101438.38
2018-09-08T17:53:35.383Z,101439.69
2018-09-08T17:56:39.702Z,101442.77
2018-09-08T17:59:44.027Z,101442.36
2018-09-08T18:02:48.314Z,101437.55
2018-09-08T18:05:52.676Z,101438.91
2018-09-08T18:08:56.965Z,101445.02
2018-09-08T18:12:01.279Z,101445.87
2018-09-08T18:15:06.946Z,101448.92
2018-09-08T18:18:11.301Z,101452.39
2018-09-08T18:21:15.687Z,101461.09
2018-09-08T18:24:20.043Z,101465.05
2018-09-08T18:27:24.436Z,101460.25
2018-09-08T18:30:29.066Z,101465.05
2018-09-08T18:33:33.400Z,101465.05
2018-09-08T18:36:37.792Z,101471.11
2018-09-08T18:39:42.124Z,101473.27
2018-09-08T18:42:46.544Z,101474.11
2018-09-08T18:45:51.156Z,101475.36
2018-09-08T18:48:55.465Z,101472.26
2018-09-08T18:52:00.382Z,101476.98
2018-09-08T18:55:05.305Z,101477.73
2018-09-08T18:58:10.451Z,101474.19
2018-09-08T19:01:14.764Z,101471.08
2018-09-08T19:04:19.180Z,101471.11
2018-09-08T19:07:23.551Z,101473.23
2018-09-08T19:10:30.989Z,101477.13
2018-09-08T19:13:35.313Z,101477.01
2018-09-08T19:16:39.781Z,101472.15
2018-09-08T19:19:44.190Z,101480.00
2018-09-08T19:22:49.099Z,101485.61
2018-09-08T19:25:53.503Z,101478.53
2018-09-08T19:29:03.030Z,101480.61
2018-09-08T19:32:07.414Z,101481.38
2018-09-08T19:35:17.157Z,101473.84
2018-09-08T19:38:21.498Z,101466.29
2018-09-08T19:41:25.958Z,101466.22
2018-09-08T19:44:30.312Z,101460.92
2018-09-08T19:47:40.070Z,101459.57
2018-09-08T19:50:44.415Z,101458.62
2018-09-08T19:53:54.070Z,101471.63
2018-09-08T19:57:03.617Z,101464.58
2018-09-08T20:00:08.770Z,101467.51
2018-09-08T20:03:13.124Z,101462.64
2018-09-08T20:06:17.457Z,101467.82
2018-09-08T20:09:21.894Z,101466.44
2018-09-08T20:12:26.319Z,101467.70
2018-09-08T20:15:30.759Z,101470.75
2018-09-08T20:18:35.113Z,101468.88
2018-09-08T20:21:39.426Z,101464.97
2018-09-08T20:24:43.800Z,101462.31
2018-09-08T20:27:48.144Z,101466.66
2018-09-08T20:30:52.480Z,101467.10
2018-09-08T20:33:56.964Z,101464.01
2018-09-08T20:37:01.874Z,101473.20
2018-09-08T20:40:06.389Z,101470.19
2018-09-08T20:43:10.864Z,101462.70
2018-09-08T20:46:15.194Z,101464.36
2018-09-08T20:49:19.539Z,101457.34
2018-09-08T20:52:23.876Z,101458.58
2018-09-08T20:55:28.424Z,101459.05
2018-09-08T20:58:33.050Z,101458.09
2018-09-08T21:01:37.417Z,101453.70
2018-09-08T21:04:42.057Z,101451.05
2018-09-08T21:07:46.509Z,101456.73
2018-09-08T21:10:50.820Z,101463.66
2018-09-08T21:13:55.439Z,101460.14
2018-09-08T21:16:59.850Z,101458.83
2018-09-08T21:20:04.483Z,101451.00
2018-09-08T21:23:08.895Z,101449.30
2018-09-08T21:26:13.350Z,101449.00
2018-09-08T21:29:18.332Z,101445.25
2018-09-08T21:32:23.378Z,101454.08
2018-09-08T21:35:28.197Z,101462.47
2018-09-08T21:38:33.458Z,101461.25
2018-09-08T21:41:38.495Z,101460.89
2018-09-08T21:44:44.059Z,101466.63
2018-09-08T21:47:49.109Z,101465.37
2018-09-08T21:50:53.769Z,101467.11
2018-09-08T21:53:59.487Z,101467.15
2018-09-08T21:57:05.260Z,101462.83
2018-09-08T22:00:09.584Z,101459.31
2018-09-08T22:03:13.900Z,101460.58
2018-09-08T22:06:18.194Z,101460.94
2018-09-08T22:09:22.539Z,101465.25
2018-09-08T22:12:26.875Z,101464.30
2018-09-08T22:15:31.135Z,101459.91
2018-09-08T22:18:35.476Z,101461.61
2018-09-08T22:21:39.798Z,101457.17
2018-09-08T22:24:44.118Z,101455.83
2018-09-08T22:27:48.453Z,101442.24
2018-09-08T22:30:52.726Z,101443.51
2018-09-08T22:33:57.051Z,101447.77
2018-09-08T22:37:01.348Z,101455.13
2018-09-08T22:40:05.665Z,101455.48
2018-09-08T22:43:09.942Z,101453.27
2018-09-08T22:46:14.281Z,101452.83
2018-09-08T22:49:18.691Z,101449.74
2018-09-08T22:52:23.885Z,101453.17
2018-09-08T22:55:28.185Z,101456.27
2018-09-08T22:58:32.449Z,101454.14
2018-09-08T23:01:36.747Z,101452.44
2018-09-08T23:04:41.035Z,101455.01
2018-09-08T23:07:45.321Z,101448.91
2018-09-08T23:10:49.754Z,101444.47
2018-09-08T23:13:54.008Z,101447.86
2018-09-08T23:16:58.284Z,101454.74
2018-09-08T23:20:02.574Z,101447.00
2018-09-08T23:23:06.921Z,101436.60
2018-09-08T23:26:11.159Z,101442.69
2018-09-08T23:29:15.471Z,101440.03
2018-09-08T23:32:20.673Z,101442.55
2018-09-08T23:35:24.969Z,101442.59
2018-09-08T23:38:29.228Z,101448.69
2018-09-08T23:41:33.497Z,101445.64
2018-09-08T23:44:37.761Z,101437.85
2018-09-08T23:47:42.069Z,101441.77
2018-09-08T23:50:46.360Z,101440.56
2018-09-08T23:53:50.728Z,101431.38
2018-09-08T23:56:54.997Z,101441.38
2018-09-08T23:59:59.280Z,101435.73
